Time;durP1;ratioP1;P1;durP2;ratioP2;P2;SDS_P1;SDS_P2;PMS_P1;PMS_P2;Temp;Humidity;BMP_temperature;BMP_pressure;BME280_temperature;BME280_humidity;BME280_pressure;Samples;Min_cycle;Max_cycle;Signal;HPM_P1;HPM_P2
2023/09/13 00:01:06;;;;;;;7.53;6.30;;;;;;;20.17;100.00;97986.63;4936519;29;20723;-78
2023/09/13 00:03:33;;;;;;;10.43;6.93;;;;;;;20.05;100.00;97978.03;4936996;29;20216;-78
2023/09/13 00:05:59;;;;;;;8.67;7.07;;;;;;;19.91;100.00;97989.44;4936998;29;20207;-78
2023/09/13 00:08:27;;;;;;;8.27;6.60;;;;;;;19.76;100.00;97992.97;4936684;29;20613;-78
2023/09/13 00:10:53;;;;;;;7.70;6.17;;;;;;;19.66;100.00;97993.13;4935567;29;20236;-78
2023/09/13 00:13:20;;;;;;;9.10;6.50;;;;;;;19.51;100.00;97992.06;4935907;29;20220;-78
2023/09/13 00:15:46;;;;;;;8.57;6.83;;;;;;;19.43;100.00;97984.03;4935376;29;20515;-78
2023/09/13 00:18:16;;;;;;;11.87;7.23;;;;;;;19.38;100.00;97993.56;4935391;29;20239;-78
2023/09/13 00:20:43;;;;;;;8.97;7.23;;;;;;;19.36;100.00;97991.03;4934961;29;20284;-78
2023/09/13 00:23:10;;;;;;;9.33;6.80;;;;;;;19.38;100.00;97994.38;4935415;29;20207;-78
2023/09/13 00:25:37;;;;;;;8.97;6.80;;;;;;;19.37;100.00;97989.19;4934799;29;20208;-78
2023/09/13 00:28:05;;;;;;;8.43;6.67;;;;;;;19.31;100.00;97987.16;4934762;29;20219;-78
2023/09/13 00:30:31;;;;;;;10.03;6.97;;;;;;;19.30;100.00;97993.53;4934516;29;20220;-78
2023/09/13 00:32:57;;;;;;;8.33;6.80;;;;;;;19.31;100.00;97998.72;4934874;29;20243;-78
2023/09/13 00:35:24;;;;;;;10.10;7.40;;;;;;;19.31;100.00;97988.00;4934993;29;20707;-78
2023/09/13 00:37:51;;;;;;;9.50;7.60;;;;;;;19.28;100.00;97991.03;4935252;29;20208;-78
2023/09/13 00:40:18;;;;;;;9.87;7.73;;;;;;;19.26;100.00;97978.78;4934718;29;20283;-78
2023/09/13 00:42:46;;;;;;;9.77;8.03;;;;;;;19.21;100.00;97983.81;4934263;29;20710;-78
2023/09/13 00:45:12;;;;;;;8.73;7.37;;;;;;;19.15;100.00;97981.75;4934849;29;20216;-78
2023/09/13 00:47:40;;;;;;;9.23;7.20;;;;;;;19.14;100.00;97972.84;4934488;29;20212;-78
2023/09/13 00:50:09;;;;;;;9.70;7.13;;;;;;;19.11;100.00;97970.50;4934457;29;20215;-78
2023/09/13 00:52:37;;;;;;;9.60;7.10;;;;;;;19.08;100.00;97970.81;4934336;29;20251;-78
2023/09/13 00:55:05;;;;;;;9.43;7.13;;;;;;;19.07;100.00;97962.97;4934440;29;20212;-78
2023/09/13 00:57:33;;;;;;;10.03;6.90;;;;;;;19.07;100.00;97952.25;4934244;29;20223;-78
2023/09/13 01:00:06;;;;;;;7.20;5.93;;;;;;;19.00;100.00;97952.06;4934409;29;20532;-78
2023/09/13 01:02:32;;;;;;;8.53;6.40;;;;;;;19.03;100.00;97945.53;4933809;29;20331;-78
2023/09/13 01:04:59;;;;;;;10.30;6.77;;;;;;;18.98;100.00;97929.97;4934276;29;20211;-78
2023/09/13 01:07:26;;;;;;;10.83;6.77;;;;;;;18.98;100.00;97916.56;4934415;29;20215;-78
2023/09/13 01:09:52;;;;;;;8.63;6.63;;;;;;;18.95;100.00;97916.06;4934727;29;20220;-78
2023/09/13 01:12:21;;;;;;;7.73;6.57;;;;;;;18.95;100.00;97903.47;4934028;29;20247;-78
2023/09/13 01:14:48;;;;;;;9.03;7.07;;;;;;;18.98;100.00;97899.66;4933959;29;20208;-78
2023/09/13 01:17:20;;;;;;;8.33;6.50;;;;;;;18.93;100.00;97894.78;4934806;29;20223;-78
2023/09/13 01:19:55;;;;;;;10.23;7.40;;;;;;;18.88;100.00;97882.88;4938151;29;20663;-78
2023/09/13 01:22:57;;;;;;;10.43;7.03;;;;;;;18.83;100.00;97878.00;4937574;29;20236;-78
2023/09/13 01:25:44;;;;;;;9.83;7.80;;;;;;;18.73;100.00;97890.72;4906107;29;20222;-78
2023/09/13 01:28:13;;;;;;;9.57;7.53;;;;;;;18.66;100.00;97889.66;4938075;29;20303;-78
2023/09/13 01:30:43;;;;;;;12.37;7.90;;;;;;;18.66;100.00;97888.84;4937558;29;20240;-78
2023/09/13 01:33:10;;;;;;;9.40;6.97;;;;;;;18.73;100.00;97906.78;4938128;29;20228;-78
2023/09/13 01:35:36;;;;;;;9.83;7.70;;;;;;;18.79;100.00;97899.94;4937937;29;20597;-78
2023/09/13 01:38:03;;;;;;;10.07;7.13;;;;;;;18.82;100.00;97891.56;4938063;29;20219;-78
2023/09/13 01:40:35;;;;;;;9.23;7.37;;;;;;;18.85;100.00;97886.75;4937723;29;20222;-78
2023/09/13 01:43:04;;;;;;;8.83;6.73;;;;;;;18.86;100.00;97895.59;4937740;29;20592;-78
2023/09/13 01:45:31;;;;;;;9.17;7.30;;;;;;;18.86;100.00;97901.81;4937578;29;20220;-78
2023/09/13 01:48:00;;;;;;;8.37;7.03;;;;;;;18.88;100.00;97913.19;4937647;29;20220;-78
2023/09/13 01:50:27;;;;;;;10.07;7.53;;;;;;;18.88;100.00;97897.09;4937294;29;20208;-78
2023/09/13 01:52:53;;;;;;;8.47;6.97;;;;;;;18.88;100.00;97883.72;4937482;29;20247;-78
2023/09/13 01:55:20;;;;;;;11.67;7.70;;;;;;;18.87;100.00;97890.09;4938009;29;20211;-78
2023/09/13 01:57:46;;;;;;;8.33;6.57;;;;;;;18.88;100.00;97893.56;4937416;29;20322;-78
2023/09/13 02:00:14;;;;;;;8.17;7.00;;;;;;;18.88;100.00;97893.56;4937691;29;20212;-78
2023/09/13 02:02:40;;;;;;;8.33;6.77;;;;;;;18.80;100.00;97902.44;4937345;29;20243;-78
2023/09/13 02:05:08;;;;;;;8.20;6.67;;;;;;;18.73;100.00;97898.75;4937366;29;20223;-78
2023/09/13 02:07:35;;;;;;;8.10;6.57;;;;;;;18.73;100.00;97906.78;4937383;29;20212;-78
2023/09/13 02:10:01;;;;;;;10.43;7.80;;;;;;;18.73;100.00;97911.28;4937287;29;20219;-77
2023/09/13 02:12:28;;;;;;;9.47;7.60;;;;;;;18.73;100.00;97917.50;4937217;29;20251;-78
2023/09/13 02:14:54;;;;;;;9.67;7.10;;;;;;;18.71;100.00;97919.47;4937180;29;20216;-78
2023/09/13 02:17:21;;;;;;;9.10;7.23;;;;;;;18.70;100.00;97923.16;4937000;29;20287;-78
2023/09/13 02:19:49;;;;;;;9.03;7.93;;;;;;;18.69;100.00;97918.81;4937068;29;20263;-78
2023/09/13 02:22:16;;;;;;;8.50;7.13;;;;;;;18.63;100.00;97932.84;4936511;29;20742;-78
2023/09/13 02:24:43;;;;;;;11.70;8.50;;;;;;;18.60;100.00;97926.97;4936782;29;20216;-78
2023/09/13 02:27:10;;;;;;;11.33;8.17;;;;;;;18.59;100.00;97915.41;4936879;29;20212;-78
2023/09/13 02:29:36;;;;;;;11.87;8.87;;;;;;;18.61;100.00;97912.56;4936383;29;20223;-78
2023/09/13 02:32:03;;;;;;;11.60;8.97;;;;;;;18.58;100.00;97908.38;4936170;29;20251;-78
2023/09/13 02:34:29;;;;;;;11.57;9.40;;;;;;;18.58;100.00;97896.81;4936628;29;20223;-78
2023/09/13 02:36:56;;;;;;;13.00;9.10;;;;;;;18.60;100.00;97901.00;4936539;29;20694;-78
2023/09/13 02:39:42;;;;;;;12.30;9.13;;;;;;;18.66;100.00;97892.34;4936637;29;20219;-78
2023/09/13 02:42:09;;;;;;;10.43;8.23;;;;;;;18.61;100.00;97875.94;4936551;29;20249;-78
2023/09/13 02:44:36;;;;;;;10.93;8.40;;;;;;;18.57;100.00;97885.28;4937120;29;20298;-78
2023/09/13 02:47:03;;;;;;;14.57;8.63;;;;;;;18.55;100.00;97899.84;4936991;29;20223;-78
2023/09/13 02:49:29;;;;;;;11.27;8.50;;;;;;;18.51;100.00;97907.34;4936676;29;20215;-78
2023/09/13 02:51:56;;;;;;;10.90;8.13;;;;;;;18.49;100.00;97916.53;4935902;29;20266;-78
2023/09/13 02:54:22;;;;;;;9.93;8.33;;;;;;;18.50;100.00;97923.56;4936346;29;20212;-78
2023/09/13 02:56:52;;;;;;;10.40;8.43;;;;;;;18.53;100.00;97932.09;4936676;29;20247;-78
2023/09/13 02:59:19;;;;;;;11.27;7.87;;;;;;;18.50;100.00;97926.22;4936341;29;20236;-78
2023/09/13 03:01:45;;;;;;;9.40;7.67;;;;;;;18.46;100.00;97931.06;4935709;29;20243;-78
2023/09/13 03:04:12;;;;;;;10.23;7.17;;;;;;;18.42;100.00;97937.72;4936303;29;20578;-78
2023/09/13 03:06:39;;;;;;;9.30;6.90;;;;;;;18.37;100.00;97933.88;4936126;29;20211;-78
2023/09/13 03:09:06;;;;;;;9.20;7.30;;;;;;;18.28;100.00;97945.50;4936351;29;20211;-78
2023/09/13 03:11:32;;;;;;;9.47;7.77;;;;;;;18.21;100.00;97947.97;4935697;29;20228;-78
2023/09/13 03:14:00;;;;;;;12.00;8.33;;;;;;;18.17;100.00;97951.94;4936278;29;20212;-78
2023/09/13 03:16:27;;;;;;;10.67;8.60;;;;;;;18.13;100.00;97953.25;4935824;29;20611;-78
2023/09/13 03:18:53;;;;;;;10.47;8.27;;;;;;;18.12;100.00;97951.59;4935678;29;20686;-78
2023/09/13 03:21:20;;;;;;;11.03;8.40;;;;;;;18.11;100.00;97943.72;4935344;29;20741;-78
2023/09/13 03:23:49;;;;;;;12.60;9.07;;;;;;;18.15;100.00;97948.59;4936158;29;20637;-77
2023/09/13 03:26:17;;;;;;;11.97;8.80;;;;;;;18.20;100.00;97942.75;4935870;29;20259;-78
2023/09/13 03:28:45;;;;;;;10.23;8.40;;;;;;;18.20;100.00;97946.28;4937483;29;20260;-78
2023/09/13 03:31:14;;;;;;;10.37;7.97;;;;;;;18.20;100.00;97946.28;4937165;29;20251;-78
2023/09/13 03:33:41;;;;;;;9.63;7.47;;;;;;;18.19;100.00;97939.25;4936782;29;20243;-78
2023/09/13 03:36:09;;;;;;;12.30;8.27;;;;;;;18.18;100.00;97937.59;4936977;29;20209;-78
2023/09/13 03:38:37;;;;;;;9.80;7.73;;;;;;;18.25;100.00;97949.31;4937123;29;20204;-78
2023/09/13 03:41:04;;;;;;;8.93;7.07;;;;;;;18.15;100.00;97948.59;4935582;29;20232;-78
2023/09/13 03:43:31;;;;;;;9.93;7.50;;;;;;;18.12;100.00;97954.25;4936856;29;20215;-78
2023/09/13 03:45:57;;;;;;;9.53;7.77;;;;;;;18.11;100.00;97949.06;4936795;29;20219;-78
2023/09/13 03:48:25;;;;;;;8.87;7.40;;;;;;;18.08;100.00;97952.88;4936791;29;20218;-78
2023/09/13 03:50:52;;;;;;;10.07;7.50;;;;;;;18.09;100.00;97954.56;4936794;29;20232;-78
2023/09/13 03:53:18;;;;;;;11.60;7.77;;;;;;;18.10;100.00;97950.88;4936951;29;20236;-78
2023/09/13 03:55:45;;;;;;;8.83;7.50;;;;;;;18.09;100.00;97948.34;4936799;29;20241;-78
2023/09/13 03:58:11;;;;;;;11.63;7.70;;;;;;;18.08;100.00;97944.88;4937094;29;20212;-78
2023/09/13 04:00:38;;;;;;;9.57;7.07;;;;;;;18.09;100.00;97946.53;4936643;29;20216;-78
2023/09/13 04:03:05;;;;;;;9.00;7.20;;;;;;;18.13;100.00;97949.72;4936860;29;20638;-78
2023/09/13 04:05:33;;;;;;;9.20;7.07;;;;;;;18.16;100.00;97958.28;4937014;29;20220;-78
2023/09/13 04:08:00;;;;;;;12.20;7.27;;;;;;;18.16;100.00;97966.31;4937107;29;20218;-78
2023/09/13 04:10:26;;;;;;;10.37;7.47;;;;;;;18.14;100.00;97959.44;4936578;29;20255;-78
2023/09/13 04:12:53;;;;;;;8.40;6.93;;;;;;;18.13;100.00;97961.28;4936597;29;20235;-78
2023/09/13 04:15:20;;;;;;;10.57;7.17;;;;;;;18.15;100.00;97964.63;4936970;29;20589;-78
2023/09/13 04:17:46;;;;;;;8.77;6.67;;;;;;;18.16;100.00;97963.63;4936764;29;20212;-78
2023/09/13 04:20:13;;;;;;;9.23;6.67;;;;;;;18.18;100.00;97961.66;4936862;29;20221;-78
2023/09/13 04:22:41;;;;;;;7.53;6.07;;;;;;;18.19;100.00;97971.34;4936715;29;20223;-78
2023/09/13 04:25:10;;;;;;;9.23;6.37;;;;;;;18.17;100.00;97967.97;4936830;29;20564;-78
2023/09/13 04:27:37;;;;;;;8.63;5.97;;;;;;;18.14;100.00;97970.97;4936813;29;20218;-78
2023/09/13 04:30:04;;;;;;;6.57;5.50;;;;;;;18.12;100.00;97964.09;4936525;29;20212;-78
2023/09/13 04:32:30;;;;;;;8.17;6.37;;;;;;;18.07;100.00;97967.25;4936237;29;20239;-78
2023/09/13 04:34:57;;;;;;;8.73;5.90;;;;;;;18.10;100.00;97969.59;4936738;29;20218;-78
2023/09/13 04:37:25;;;;;;;6.33;5.30;;;;;;;18.08;100.00;97963.59;4936485;29;20211;-78
2023/09/13 04:39:53;;;;;;;7.33;5.90;;;;;;;18.09;100.00;97967.94;4936413;29;20636;-78
2023/09/13 04:42:20;;;;;;;7.83;5.70;;;;;;;18.09;100.00;97980.47;4935971;29;20224;-78
2023/09/13 04:44:46;;;;;;;7.73;5.97;;;;;;;18.11;100.00;97984.66;4936470;29;20212;-78
2023/09/13 04:47:13;;;;;;;6.47;5.43;;;;;;;18.11;100.00;97990.00;4936470;29;20222;-78
2023/09/13 04:49:39;;;;;;;7.70;5.87;;;;;;;18.14;100.00;98000.41;4936645;29;20635;-78
2023/09/13 04:52:09;;;;;;;7.57;5.83;;;;;;;18.14;100.00;98005.75;4935863;29;20231;-78
2023/09/13 04:54:36;;;;;;;6.47;5.53;;;;;;;18.15;100.00;98010.09;4936248;29;20217;-78
2023/09/13 04:57:04;;;;;;;6.27;5.40;;;;;;;18.13;100.00;98012.09;4936350;29;20699;-78
2023/09/13 04:59:42;;;;;;;8.30;6.30;;;;;;;18.13;100.00;98012.09;4937088;29;20271;-78
2023/09/13 05:02:10;;;;;;;7.03;5.57;;;;;;;18.11;100.00;98019.44;4935792;29;20618;-78
2023/09/13 05:04:36;;;;;;;6.97;5.50;;;;;;;18.11;100.00;98013.25;4936676;29;20212;-78
2023/09/13 05:07:03;;;;;;;7.37;5.50;;;;;;;18.08;100.00;98014.41;4936514;29;20218;-78
2023/09/13 05:09:29;;;;;;;7.73;5.63;;;;;;;18.09;100.00;98013.41;4936394;29;20307;-78
2023/09/13 05:11:56;;;;;;;6.10;5.50;;;;;;;18.08;100.00;98010.88;4936124;29;20232;-78
2023/09/13 05:14:24;;;;;;;6.60;5.50;;;;;;;18.13;100.00;98013.94;4936008;29;20718;-78
2023/09/13 05:16:50;;;;;;;6.93;5.57;;;;;;;18.14;100.00;98015.59;4936494;29;20212;-78
2023/09/13 05:19:17;;;;;;;7.53;5.67;;;;;;;18.15;100.00;98007.44;4936465;29;20223;-78
2023/09/13 05:21:44;;;;;;;6.73;5.90;;;;;;;18.17;100.00;98004.63;4935849;29;20726;-78
2023/09/13 05:24:10;;;;;;;7.83;5.73;;;;;;;18.19;100.00;97999.94;4936226;29;20211;-78
2023/09/13 05:26:37;;;;;;;7.17;5.90;;;;;;;18.19;100.00;98003.47;4936519;29;20212;-78
2023/09/13 05:29:04;;;;;;;6.53;5.23;;;;;;;18.23;100.00;98015.50;4936064;29;20226;-78
2023/09/13 05:31:32;;;;;;;7.50;5.67;;;;;;;18.29;100.00;98025.59;4935577;29;20239;-78
2023/09/13 05:33:58;;;;;;;7.87;5.40;;;;;;;18.33;100.00;98024.31;4935874;29;20290;-78
2023/09/13 05:36:25;;;;;;;6.70;5.80;;;;;;;18.41;100.00;98031.56;4935857;29;20230;-79
2023/09/13 05:38:51;;;;;;;6.20;5.40;;;;;;;18.41;100.00;98035.06;4936262;29;20208;-78
2023/09/13 05:41:19;;;;;;;7.30;5.63;;;;;;;18.47;100.00;98038.97;4934106;29;20236;-78
2023/09/13 05:43:45;;;;;;;6.70;5.77;;;;;;;18.50;100.00;98042.19;4935323;29;20209;-78
2023/09/13 05:46:12;;;;;;;5.57;5.03;;;;;;;18.56;100.00;98049.56;4935157;29;20215;-78
2023/09/13 05:48:40;;;;;;;6.13;5.30;;;;;;;18.61;100.00;98055.31;4935512;29;20208;-78
2023/09/13 05:51:06;;;;;;;5.70;5.10;;;;;;;18.60;100.00;98053.59;4935184;29;20232;-78
2023/09/13 05:53:33;;;;;;;5.80;5.20;;;;;;;18.65;100.00;98045.13;4935141;29;20236;-78
2023/09/13 05:55:59;;;;;;;4.90;4.33;;;;;;;18.70;100.00;98046.31;4935624;29;20215;-78
2023/09/13 05:58:26;;;;;;;5.27;4.60;;;;;;;18.69;100.00;98044.63;4935245;29;20218;-78
2023/09/13 06:00:54;;;;;;;7.17;5.27;;;;;;;18.72;100.00;98043.47;4934930;29;20236;-78
2023/09/13 06:03:21;;;;;;;5.10;4.50;;;;;;;18.75;100.00;98049.34;4936610;29;20212;-78
2023/09/13 06:05:50;;;;;;;4.57;4.03;;;;;;;18.76;100.00;98044.81;4938992;29;20209;-78
2023/09/13 06:08:17;;;;;;;5.03;4.17;;;;;;;18.77;100.00;98055.38;4956339;29;20207;-83
2023/09/13 06:10:43;;;;;;;4.73;4.20;;;;;;;18.80;100.00;98060.44;4959266;28;20247;-81
2023/09/13 06:13:10;;;;;;;4.27;3.57;;;;;;;18.87;100.00;98066.84;4959314;28;20231;-80
2023/09/13 06:15:36;;;;;;;4.53;4.00;;;;;;;18.90;100.00;98069.19;4959150;28;20230;-80
2023/09/13 06:18:03;;;;;;;4.57;4.03;;;;;;;18.94;100.00;98075.91;4959690;28;20214;-80
2023/09/13 06:20:30;;;;;;;6.10;4.73;;;;;;;18.94;100.00;98081.25;4959174;28;20696;-80
2023/09/13 06:22:57;;;;;;;6.10;4.40;;;;;;;18.95;100.00;98085.63;4959872;28;20210;-79
2023/09/13 06:25:24;;;;;;;5.50;4.10;;;;;;;18.94;100.00;98086.63;4959379;28;20215;-79
2023/09/13 06:27:50;;;;;;;4.90;4.10;;;;;;;18.96;100.00;98095.31;4958517;28;20221;-78
2023/09/13 06:30:17;;;;;;;4.70;4.20;;;;;;;18.95;100.00;98104.38;4958675;28;20211;-79
2023/09/13 06:32:44;;;;;;;5.80;4.27;;;;;;;18.96;100.00;98110.56;4958710;28;20227;-80
2023/09/13 06:35:11;;;;;;;4.73;4.27;;;;;;;18.99;100.00;98108.41;4959487;28;20219;-80
2023/09/13 06:37:38;;;;;;;5.10;4.13;;;;;;;19.02;100.00;98110.75;4958803;28;20223;-79
2023/09/13 06:40:08;;;;;;;5.40;4.03;;;;;;;19.04;100.00;98113.28;4958950;28;20304;-80
2023/09/13 06:42:34;;;;;;;4.00;3.43;;;;;;;19.10;100.00;98113.50;4958945;28;20600;-80
2023/09/13 06:45:02;;;;;;;4.13;3.73;;;;;;;19.13;100.00;98109.69;4959470;28;20222;-80
2023/09/13 06:47:30;;;;;;;4.70;3.90;;;;;;;19.20;100.00;98118.75;4960086;28;20211;-80
2023/09/13 06:49:56;;;;;;;4.97;3.93;;;;;;;19.25;100.00;98122.66;4959889;28;20222;-80
2023/09/13 06:52:23;;;;;;;4.90;3.70;;;;;;;19.29;100.00;98117.81;4959391;28;20235;-80
2023/09/13 06:54:49;;;;;;;3.80;3.40;;;;;;;19.33;100.00;98124.53;4959979;28;20235;-80
2023/09/13 06:57:17;;;;;;;5.17;3.80;;;;;;;19.39;100.00;98116.69;4959422;28;20223;-78
2023/09/13 06:59:44;;;;;;;3.93;3.53;;;;;;;19.48;100.00;98128.28;4959816;28;20211;-80
2023/09/13 07:02:10;;;;;;;4.00;3.60;;;;;;;19.56;100.00;98121.09;4959621;28;20242;-79
2023/09/13 07:04:38;;;;;;;4.20;3.80;;;;;;;19.63;100.00;98121.31;4960396;28;20208;-80
2023/09/13 07:07:05;;;;;;;4.77;3.63;;;;;;;19.69;100.00;98126.03;4960108;28;20247;-80
2023/09/13 07:09:31;;;;;;;4.10;3.63;;;;;;;19.77;100.00;98129.56;4958566;28;20687;-80
2023/09/13 07:11:58;;;;;;;4.87;3.57;;;;;;;19.81;100.00;98130.91;4958966;28;20238;-81
2023/09/13 07:14:26;;;;;;;5.50;3.60;;;;;;;19.88;100.00;98131.94;4957918;28;20258;-81
2023/09/13 07:16:52;;;;;;;4.50;3.27;;;;;;;19.90;100.00;98127.25;4957105;28;20215;-81
2023/09/13 07:19:19;;;;;;;4.10;3.17;;;;;;;19.98;100.00;98127.28;4944007;28;20585;-81
2023/09/13 07:21:46;;;;;;;4.80;3.63;;;;;;;19.96;100.00;98131.97;4937651;29;20243;-80
2023/09/13 07:24:15;;;;;;;3.27;2.97;;;;;;;19.98;100.00;98140.69;4937738;29;20239;-80
2023/09/13 07:26:42;;;;;;;3.50;3.20;;;;;;;19.93;100.00;98140.34;4937919;29;20216;-80
2023/09/13 07:29:08;;;;;;;3.70;2.90;;;;;;;19.91;100.00;98142.34;4936691;29;20223;-80
2023/09/13 07:31:36;;;;;;;4.63;3.63;;;;;;;19.86;100.00;98144.69;4937359;29;20232;-81
2023/09/13 07:34:03;;;;;;;4.37;3.00;;;;;;;19.82;100.00;98146.00;4937072;29;20236;-81
2023/09/13 07:36:29;;;;;;;3.03;2.67;;;;;;;19.82;100.00;98147.84;4937256;29;20248;-80
2023/09/13 07:38:56;;;;;;;3.50;2.80;;;;;;;19.86;100.00;98139.31;4936576;29;20223;-80
2023/09/13 07:41:22;;;;;;;3.87;3.47;;;;;;;19.97;100.00;98155.09;4936895;29;20733;-80
2023/09/13 07:43:49;;;;;;;3.77;3.30;;;;;;;19.95;100.00;98154.44;4936916;29;20204;-80
2023/09/13 07:46:15;;;;;;;3.57;3.27;;;;;;;19.97;100.00;98157.78;4937278;29;20244;-80
2023/09/13 07:48:43;;;;;;;4.43;3.63;;;;;;;19.97;100.00;98159.63;4936830;29;20219;-80
2023/09/13 07:51:10;;;;;;;3.73;3.23;;;;;;;20.04;100.00;98161.50;4936428;29;20246;-80
2023/09/13 07:53:37;;;;;;;3.30;3.00;;;;;;;20.13;100.00;98152.50;4937148;29;20236;-80
2023/09/13 07:56:04;;;;;;;3.17;2.80;;;;;;;20.16;100.00;98157.53;4936889;29;20687;-80
2023/09/13 07:58:30;;;;;;;3.37;2.93;;;;;;;20.18;100.00;98163.56;4937899;29;20301;-80
2023/09/13 08:00:56;;;;;;;3.03;2.70;;;;;;;20.24;100.00;98162.09;4937388;29;20235;-80
2023/09/13 08:03:23;;;;;;;3.67;2.77;;;;;;;20.28;100.00;98166.94;4938144;29;20215;-80
2023/09/13 08:05:51;;;;;;;3.50;2.97;;;;;;;20.32;100.00;98164.78;4938015;29;20212;-80
2023/09/13 08:08:22;;;;;;;4.07;3.00;;;;;;;20.37;100.00;98165.94;4937824;29;20209;-80
2023/09/13 08:10:49;;;;;;;3.07;2.77;;;;;;;20.44;100.00;98160.75;4936807;29;20278;-80
2023/09/13 08:13:16;;;;;;;3.97;2.70;;;;;;;20.52;100.00;98164.28;4937626;29;20216;-80
2023/09/13 08:15:43;;;;;;;4.23;2.93;;;;;;;20.59;100.00;98159.91;4937719;29;20208;-80
2023/09/13 08:18:09;;;;;;;3.83;2.63;;;;;;;20.62;100.00;98154.22;4938793;29;20294;-83
2023/09/13 08:20:36;;;;;;;3.63;2.87;;;;;;;20.70;100.00;98162.28;4940378;29;20212;-82
2023/09/13 08:23:04;;;;;;;5.63;3.00;;;;;;;20.65;100.00;98174.50;4940978;29;20288;-81
2023/09/13 08:25:30;;;;;;;3.13;2.83;;;;;;;20.70;100.00;98182.91;4939455;29;20219;-83
2023/09/13 08:27:57;;;;;;;3.23;2.90;;;;;;;20.77;100.00;98178.53;4940656;29;20208;-82
2023/09/13 08:30:23;;;;;;;3.40;3.10;;;;;;;20.71;100.00;98182.75;4939709;29;20675;-83
2023/09/13 08:32:50;;;;;;;4.20;3.80;;;;;;;20.67;100.00;98184.09;4940156;29;20212;-83
2023/09/13 08:35:17;;;;;;;3.10;2.80;;;;;;;20.70;100.00;98188.28;4940888;29;20236;-82
2023/09/13 08:37:44;;;;;;;4.10;3.70;;;;;;;20.68;100.00;98191.16;4939948;29;20212;-80
2023/09/13 08:40:12;;;;;;;5.30;3.30;;;;;;;20.69;100.00;98198.22;4940435;29;20216;-82
2023/09/13 08:42:41;;;;;;;3.77;3.37;;;;;;;20.75;100.00;98192.16;4939535;29;20235;-81
2023/09/13 08:45:08;;;;;;;5.77;3.83;;;;;;;20.80;100.00;98192.47;4941857;29;20781;-82
2023/09/13 08:47:38;;;;;;;4.50;3.90;;;;;;;20.80;100.00;98197.84;4940419;29;20587;-82
2023/09/13 08:50:08;;;;;;;4.10;3.27;;;;;;;20.86;100.00;98202.56;4940103;29;20208;-83
2023/09/13 08:52:35;;;;;;;4.40;3.40;;;;;;;20.84;100.00;98203.75;4940324;29;20236;-83
2023/09/13 08:55:04;;;;;;;3.73;3.17;;;;;;;20.76;100.00;98204.59;4940835;29;20287;-83
2023/09/13 08:57:33;;;;;;;3.60;3.17;;;;;;;20.70;100.00;98204.41;4940473;29;20216;-83
2023/09/13 08:59:59;;;;;;;4.27;3.30;;;;;;;20.61;100.00;98214.31;4939332;29;20215;-83
2023/09/13 09:02:31;;;;;;;6.20;3.47;;;;;;;20.57;100.00;98214.81;4938425;29;20259;-83
2023/09/13 09:04:59;;;;;;;5.03;3.70;;;;;;;20.61;100.00;98213.47;4938380;29;20207;-83
2023/09/13 09:07:26;;;;;;;4.23;3.40;;;;;;;20.61;100.00;98213.47;4939188;29;20219;-83
2023/09/13 09:09:54;;;;;;;4.33;3.40;;;;;;;20.52;100.00;98223.38;4938565;29;20216;-83
2023/09/13 09:12:23;;;;;;;3.77;3.40;;;;;;;20.48;100.00;98219.31;4938525;29;20239;-83
2023/09/13 09:14:53;;;;;;;4.63;3.50;;;;;;;20.51;100.00;98221.69;4938925;29;20710;-83
2023/09/13 09:17:24;;;;;;;4.10;3.37;;;;;;;20.54;100.00;98220.53;4938094;29;20647;-83
2023/09/13 09:19:51;;;;;;;3.67;2.83;;;;;;;20.64;100.00;98222.03;4937995;29;20235;-83
2023/09/13 09:22:20;;;;;;;4.67;3.60;;;;;;;20.68;100.00;98223.41;4938177;29;20238;-83
2023/09/13 09:24:46;;;;;;;3.90;3.50;;;;;;;20.72;100.00;98224.72;4937632;29;20245;-83
2023/09/13 09:27:13;;;;;;;3.70;3.40;;;;;;;20.79;100.00;98227.59;4937979;29;20651;-83
2023/09/13 09:29:40;;;;;;;4.43;3.30;;;;;;;20.78;100.00;98226.75;4937588;29;20219;-83
2023/09/13 09:32:08;;;;;;;3.83;3.50;;;;;;;20.79;100.00;98227.59;4937127;29;20314;-84
2023/09/13 09:34:39;;;;;;;6.13;3.53;;;;;;;20.72;100.00;98229.28;4938555;29;20232;-83
2023/09/13 09:37:08;;;;;;;3.83;3.43;;;;;;;20.70;100.00;98229.44;4937998;29;20224;-84
2023/09/13 09:39:37;;;;;;;5.40;3.23;;;;;;;20.73;100.00;98230.94;4939457;29;20209;-85
2023/09/13 09:42:04;;;;;;;3.73;3.30;;;;;;;20.79;100.00;98231.09;4940526;29;20235;-85
2023/09/13 09:44:31;;;;;;;3.53;3.20;;;;;;;20.81;100.00;98233.63;4939494;29;20212;-85
2023/09/13 09:46:58;;;;;;;4.23;3.37;;;;;;;20.85;100.00;98235.81;4939515;29;20208;-85
2023/09/13 09:49:26;;;;;;;3.47;3.17;;;;;;;20.88;100.00;98240.03;4939518;29;20212;-85
2023/09/13 09:51:54;;;;;;;4.10;3.07;;;;;;;20.89;100.00;98239.88;4938987;29;20234;-85
2023/09/13 09:54:20;;;;;;;3.80;3.07;;;;;;;20.94;100.00;98234.00;4938263;29;20594;-85
2023/09/13 09:56:47;;;;;;;3.97;3.57;;;;;;;20.95;100.00;98235.66;4939790;29;20215;-85
2023/09/13 09:59:14;;;;;;;3.47;3.17;;;;;;;20.89;100.00;98237.19;4941026;29;20681;-85
2023/09/13 10:01:43;;;;;;;4.03;3.63;;;;;;;20.92;100.00;98247.59;4939893;29;20441;-84
2023/09/13 10:04:10;;;;;;;4.00;3.23;;;;;;;21.07;100.00;98245.94;4940934;29;20585;-85
2023/09/13 10:06:55;;;;;;;3.97;3.40;;;;;;;21.26;100.00;98245.56;4941698;29;20213;-84
2023/09/13 10:09:21;;;;;;;3.77;3.33;;;;;;;21.35;100.00;98238.34;4942428;29;20216;-84
2023/09/13 10:11:47;;;;;;;3.43;3.13;;;;;;;21.44;100.00;98243.53;4941799;29;20232;-84
2023/09/13 10:14:25;;;;;;;4.67;3.47;;;;;;;21.43;100.00;98241.88;4940231;29;20652;-86
2023/09/13 10:16:53;;;;;;;3.10;2.80;;;;;;;21.38;100.00;98233.47;4942046;29;20229;-84
2023/09/13 10:19:26;;;;;;;3.50;3.20;;;;;;;21.37;100.00;98236.31;4941973;29;20223;-84
2023/09/13 10:21:55;;;;;;;3.40;3.10;;;;;;;21.42;100.00;98236.66;4939475;29;20260;-85
2023/09/13 10:24:23;;;;;;;3.90;3.43;;;;;;;21.36;100.00;98232.81;4939816;29;20634;-85
2023/09/13 10:26:51;;;;;;;3.80;3.40;;;;;;;21.39;100.00;98237.00;4937935;29;20318;-85
2023/09/13 10:29:25;;;;;;;3.67;3.30;;;;;;;21.49;100.00;98240.31;4936342;29;20686;-86
2023/09/13 10:31:56;;;;;;;3.33;3.03;;;;;;;21.59;100.00;98244.50;4938946;29;20354;-85
2023/09/13 10:34:24;;;;;;;4.07;3.67;;;;;;;21.69;100.00;98239.00;4939361;29;20220;-83
2023/09/13 10:37:00;;;;;;;3.40;3.10;;;;;;;21.83;100.00;98239.09;4939866;29;20212;-84
2023/09/13 10:39:30;;;;;;;3.50;2.97;;;;;;;21.98;100.00;98226.59;4940092;29;20708;-84
2023/09/13 10:42:04;;;;;;;4.63;3.60;;;;;;;22.13;97.47;98219.44;4939869;29;20232;-84
2023/09/13 10:44:30;;;;;;;4.30;3.43;;;;;;;22.18;95.07;98216.25;4940180;29;20219;-83
2023/09/13 10:46:57;;;;;;;4.10;3.13;;;;;;;22.18;96.44;98224.31;4939335;29;20223;-80
2023/09/13 10:49:25;;;;;;;4.93;3.33;;;;;;;22.17;96.38;98215.38;4937703;29;20247;-80
2023/09/13 10:51:52;;;;;;;4.67;3.60;;;;;;;22.21;93.45;98216.72;4937872;29;20236;-80
2023/09/13 10:54:21;;;;;;;3.33;3.03;;;;;;;22.21;93.01;98213.19;4937709;29;20232;-80
2023/09/13 10:56:49;;;;;;;3.90;3.50;;;;;;;22.19;92.48;98213.34;4937688;29;20223;-80
2023/09/13 10:59:18;;;;;;;3.77;3.33;;;;;;;22.17;93.44;98215.38;4937495;29;20628;-80
2023/09/13 11:01:46;;;;;;;3.37;3.07;;;;;;;22.20;93.33;98215.03;4937084;29;20291;-80
2023/09/13 11:04:14;;;;;;;3.73;3.33;;;;;;;22.27;94.51;98226.78;4938107;29;20283;-80
2023/09/13 11:06:42;;;;;;;4.13;3.63;;;;;;;22.37;90.61;98222.00;4937404;29;20627;-80
2023/09/13 11:09:12;;;;;;;3.97;3.50;;;;;;;22.36;91.03;98220.34;4937899;29;20211;-80
2023/09/13 11:11:45;;;;;;;3.90;3.00;;;;;;;22.37;90.40;98213.94;4937251;29;20228;-80
2023/09/13 11:14:17;;;;;;;4.57;3.57;;;;;;;22.46;88.70;98214.75;4937509;29;20224;-80
2023/09/13 11:16:45;;;;;;;5.67;4.00;;;;;;;22.43;87.65;98209.72;4937355;29;20212;-80
2023/09/13 11:19:14;;;;;;;3.60;3.30;;;;;;;22.48;87.97;98207.31;4936908;29;20208;-80
2023/09/13 11:21:48;;;;;;;4.37;3.43;;;;;;;22.59;89.24;98210.47;4936856;29;20228;-80
2023/09/13 11:24:14;;;;;;;3.90;3.00;;;;;;;22.78;89.86;98219.91;4936662;29;20216;-80
2023/09/13 11:26:48;;;;;;;4.03;3.50;;;;;;;22.93;89.88;98218.94;4936762;29;20208;-80